createdAt,value
2023-05-10T00:00:57.923Z,4.38
2023-05-10T00:01:59.858Z,5.40
2023-05-10T00:03:01.709Z,4.45
2023-05-10T00:04:03.556Z,5.10
2023-05-10T00:05:06.316Z,5.32
2023-05-10T00:06:08.116Z,4.85
2023-05-10T00:07:11.151Z,5.35
2023-05-10T00:08:13.014Z,5.03
2023-05-10T00:09:15.109Z,5.00
2023-05-10T00:10:17.234Z,5.28
2023-05-10T00:11:20.958Z,5.28
2023-05-10T00:12:24.004Z,4.85
2023-05-10T00:13:26.097Z,5.07
2023-05-10T00:14:28.070Z,5.00
2023-05-10T00:15:31.464Z,5.13
2023-05-10T00:16:33.371Z,5.18
2023-05-10T00:17:35.658Z,4.90
2023-05-10T00:18:37.508Z,5.30
2023-05-10T00:19:39.308Z,5.00
2023-05-10T00:20:41.020Z,5.15
2023-05-10T00:21:42.754Z,5.35
2023-05-10T00:22:44.501Z,5.30
2023-05-10T00:23:46.302Z,5.20
2023-05-10T00:24:48.058Z,5.55
2023-05-10T00:25:49.816Z,4.70
2023-05-10T00:26:51.574Z,5.80
2023-05-10T00:27:53.299Z,4.88
2023-05-10T00:28:55.126Z,5.00
2023-05-10T00:29:56.911Z,4.15
2023-05-10T00:30:58.711Z,4.90
2023-05-10T00:32:00.528Z,5.47
2023-05-10T00:33:02.442Z,5.03
2023-05-10T00:34:04.586Z,5.20
2023-05-10T00:35:06.906Z,4.72
2023-05-10T00:36:09.199Z,4.50
2023-05-10T00:37:10.957Z,5.00
2023-05-10T00:38:12.692Z,4.93
2023-05-10T00:39:14.437Z,5.18
2023-05-10T00:40:16.642Z,5.15
2023-05-10T00:41:18.776Z,5.22
2023-05-10T00:42:20.516Z,5.10
2023-05-10T00:43:22.248Z,4.93
2023-05-10T00:44:24.066Z,5.03
2023-05-10T00:45:26.048Z,5.18
2023-05-10T00:46:28.193Z,5.55
2023-05-10T00:47:30.717Z,5.60
2023-05-10T00:48:33.038Z,4.95
2023-05-10T00:49:37.217Z,5.55
2023-05-10T00:50:40.967Z,5.85
2023-05-10T00:51:43.880Z,5.30
2023-05-10T00:52:45.656Z,5.45
2023-05-10T00:53:47.748Z,5.57
2023-05-10T00:54:50.489Z,5.30
2023-05-10T00:55:52.505Z,5.90
2023-05-10T00:56:54.338Z,5.53
2023-05-10T00:57:56.689Z,5.95
2023-05-10T00:58:58.680Z,5.70
2023-05-10T01:00:00.854Z,5.63
2023-05-10T01:01:03.211Z,6.00
2023-05-10T01:02:05.400Z,6.18
2023-05-10T01:03:07.296Z,5.43
2023-05-10T01:04:11.926Z,5.28
2023-05-10T01:05:14.531Z,5.60
2023-05-10T01:06:16.333Z,6.15
2023-05-10T01:07:18.213Z,6.15
2023-05-10T01:08:21.253Z,5.68
2023-05-10T01:09:24.276Z,6.10
2023-05-10T01:10:26.374Z,6.22
2023-05-10T01:11:28.245Z,5.20
2023-05-10T01:12:30.270Z,6.22
2023-05-10T01:13:39.082Z,5.45
2023-05-10T01:14:41.370Z,4.75
2023-05-10T01:15:43.329Z,5.55
2023-05-10T01:16:48.334Z,6.00
2023-05-10T01:17:50.268Z,5.30
2023-05-10T01:18:53.178Z,5.18
2023-05-10T01:19:55.051Z,6.28
2023-05-10T01:21:23.507Z,5.65
2023-05-10T01:23:12.173Z,5.80
2023-05-10T01:24:13.799Z,6.07
2023-05-10T01:25:58.454Z,5.28
2023-05-10T01:27:59.522Z,5.82
2023-05-10T01:29:31.984Z,6.28
2023-05-10T01:31:03.785Z,5.85
2023-05-10T01:32:23.523Z,4.90
2023-05-10T01:33:37.517Z,5.25
2023-05-10T01:35:20.387Z,5.07
2023-05-10T01:36:54.216Z,5.55
2023-05-10T01:38:19.016Z,6.18
2023-05-10T01:39:47.970Z,6.10
2023-05-10T01:41:10.952Z,6.22
2023-05-10T01:42:22.754Z,6.25
2023-05-10T01:43:33.961Z,5.55
2023-05-10T01:44:50.068Z,5.95
2023-05-10T01:46:11.787Z,5.70
2023-05-10T01:47:40.436Z,5.75
2023-05-10T01:48:52.597Z,5.63
2023-05-10T01:50:01.057Z,5.30
2023-05-10T01:51:05.306Z,5.70
2023-05-10T01:52:16.798Z,5.30
2023-05-10T01:53:22.452Z,5.55
2023-05-10T01:54:25.697Z,6.13
2023-05-10T01:55:46.527Z,5.55
2023-05-10T01:57:01.143Z,6.25
2023-05-10T01:58:12.574Z,6.35
2023-05-10T01:59:20.174Z,5.60
2023-05-10T02:00:22.902Z,6.35
2023-05-10T02:01:27.800Z,5.85
2023-05-10T02:02:37.767Z,5.63
2023-05-10T02:04:10.034Z,6.03
2023-05-10T02:05:50.847Z,6.13
2023-05-10T02:06:56.203Z,5.10
2023-05-10T02:08:02.303Z,5.47
2023-05-10T02:09:16.815Z,6.60
2023-05-10T02:13:20.264Z,5.10
2023-05-10T02:14:25.297Z,5.80
2023-05-10T02:15:29.536Z,5.80
2023-05-10T02:16:32.879Z,5.38
2023-05-10T02:17:38.450Z,5.50
2023-05-10T02:18:42.720Z,5.75
2023-05-10T02:19:46.326Z,5.35
2023-05-10T02:20:48.814Z,5.20
2023-05-10T02:21:52.598Z,6.25
2023-05-10T02:22:58.480Z,5.75
2023-05-10T02:24:04.979Z,6.13
2023-05-10T02:25:10.742Z,5.10
2023-05-10T02:26:14.394Z,5.60
2023-05-10T02:27:20.804Z,4.65
2023-05-10T02:28:26.031Z,5.72
2023-05-10T02:29:30.040Z,5.28
2023-05-10T02:30:35.168Z,5.47
2023-05-10T02:31:39.755Z,5.25
2023-05-10T02:32:43.813Z,5.93
2023-05-10T02:33:48.316Z,5.55
2023-05-10T02:34:52.905Z,5.63
2023-05-10T02:35:56.721Z,5.78
2023-05-10T02:37:00.724Z,5.70
2023-05-10T02:38:05.214Z,5.70
2023-05-10T02:39:13.645Z,5.30
2023-05-10T02:40:19.211Z,5.88
2023-05-10T02:41:25.313Z,4.80
2023-05-10T02:42:30.178Z,5.82
2023-05-10T02:43:34.829Z,6.35
2023-05-10T02:44:39.720Z,5.75
2023-05-10T02:45:44.247Z,5.20
2023-05-10T02:46:46.890Z,5.82
2023-05-10T02:47:49.590Z,5.30
2023-05-10T02:48:51.507Z,5.93
2023-05-10T02:49:53.273Z,5.78
2023-05-10T02:51:01.524Z,5.65
2023-05-10T02:52:08.091Z,5.50
2023-05-10T02:53:21.871Z,6.20
2023-05-10T02:54:34.244Z,5.72
2023-05-10T02:55:46.133Z,5.32
2023-05-10T02:56:58.048Z,5.00
2023-05-10T02:58:03.316Z,5.32
2023-05-10T02:59:05.924Z,4.88
2023-05-10T03:00:09.952Z,5.80
2023-05-10T03:01:11.869Z,5.00
2023-05-10T03:02:14.845Z,5.53
2023-05-10T03:03:16.655Z,6.20
2023-05-10T03:04:18.698Z,5.15
2023-05-10T03:05:21.457Z,5.72
2023-05-10T03:06:23.324Z,5.13
2023-05-10T03:07:25.318Z,4.50
2023-05-10T03:08:30.175Z,5.20
2023-05-10T03:09:34.065Z,4.93
2023-05-10T03:10:53.067Z,5.97
2023-05-10T03:12:24.744Z,5.55
2023-05-10T03:13:47.469Z,5.47
2023-05-10T03:15:04.540Z,5.35
2023-05-10T03:16:21.024Z,5.78
2023-05-10T03:18:05.629Z,4.60
2023-05-10T03:19:28.948Z,5.60
2023-05-10T03:20:44.268Z,5.55
2023-05-10T03:21:53.487Z,5.45
2023-05-10T03:23:26.906Z,4.72
2023-05-10T03:24:29.680Z,5.30
2023-05-10T03:25:33.300Z,4.85
2023-05-10T03:26:37.163Z,5.57
2023-05-10T03:27:44.441Z,5.20
2023-05-10T03:28:49.457Z,5.00
2023-05-10T03:29:53.639Z,4.45
2023-05-10T03:30:57.591Z,4.82
2023-05-10T03:32:03.308Z,5.13
2023-05-10T03:33:08.364Z,5.35
2023-05-10T03:34:10.343Z,5.30
2023-05-10T03:35:15.203Z,4.95
2023-05-10T03:36:17.369Z,4.90
2023-05-10T03:37:19.188Z,4.80
2023-05-10T03:38:20.945Z,4.55
2023-05-10T03:39:22.757Z,5.10
2023-05-10T03:40:26.457Z,4.72
2023-05-10T03:41:28.238Z,6.15
2023-05-10T03:42:30.126Z,4.90
2023-05-10T03:43:31.904Z,5.32
2023-05-10T03:44:34.320Z,5.10
2023-05-10T03:45:36.559Z,4.72
2023-05-10T03:46:38.380Z,5.22
2023-05-10T03:47:40.280Z,5.00
2023-05-10T03:48:42.074Z,5.22
2023-05-10T03:49:44.051Z,4.85
2023-05-10T03:50:45.888Z,4.90
2023-05-10T03:51:47.749Z,5.20
2023-05-10T03:52:49.654Z,5.13
2023-05-10T03:53:51.639Z,4.85
2023-05-10T03:54:53.453Z,4.60
2023-05-10T03:55:55.177Z,5.03
2023-05-10T03:56:56.892Z,5.05
2023-05-10T03:57:58.696Z,5.00
2023-05-10T03:59:00.544Z,4.95
2023-05-10T04:00:03.743Z,5.70
2023-05-10T04:01:05.755Z,4.95
2023-05-10T04:02:07.747Z,4.97
2023-05-10T04:03:09.662Z,4.80
2023-05-10T04:04:11.654Z,5.57
2023-05-10T04:05:13.782Z,4.85
2023-05-10T04:06:15.653Z,5.30
2023-05-10T04:07:17.415Z,4.82
2023-05-10T04:08:19.210Z,4.75
2023-05-10T04:09:21.038Z,3.60
2023-05-10T04:10:22.864Z,4.90
2023-05-10T04:11:25.609Z,4.35
2023-05-10T04:12:27.357Z,5.20
2023-05-10T04:13:29.112Z,4.40
2023-05-10T04:14:30.935Z,4.63
2023-05-10T04:15:32.708Z,5.10
2023-05-10T04:16:34.761Z,4.85
2023-05-10T04:17:36.614Z,4.28
2023-05-10T04:18:38.473Z,4.90
2023-05-10T04:19:40.250Z,4.90
2023-05-10T04:20:42.010Z,4.95
2023-05-10T04:21:43.783Z,4.82
2023-05-10T04:22:45.546Z,4.55
2023-05-10T04:23:47.573Z,5.07
2023-05-10T04:24:49.356Z,4.38
2023-05-10T04:25:51.142Z,3.95
2023-05-10T04:26:52.973Z,4.57
2023-05-10T04:27:54.710Z,5.28
2023-05-10T04:28:56.484Z,5.57
2023-05-10T04:29:58.705Z,4.63
2023-05-10T04:31:10.182Z,4.40
2023-05-10T04:32:11.944Z,4.30
2023-05-10T04:33:13.681Z,4.88
2023-05-10T04:34:15.606Z,4.65
2023-05-10T04:35:17.600Z,4.40
2023-05-10T04:36:19.670Z,5.07
2023-05-10T04:37:22.351Z,4.50
2023-05-10T04:38:24.337Z,4.97
2023-05-10T04:39:26.130Z,4.00
2023-05-10T04:40:28.103Z,4.45
2023-05-10T04:41:30.348Z,4.47
2023-05-10T04:42:32.062Z,4.20
2023-05-10T04:43:34.167Z,5.18
2023-05-10T04:44:37.015Z,4.30
2023-05-10T04:45:38.777Z,4.85
2023-05-10T04:46:40.677Z,4.13
2023-05-10T04:47:42.579Z,4.05
2023-05-10T04:48:44.350Z,5.13
2023-05-10T04:49:46.247Z,4.68
2023-05-10T04:50:47.995Z,4.85
2023-05-10T04:51:49.833Z,4.70
2023-05-10T04:52:53.171Z,4.40
2023-05-10T04:54:05.211Z,4.05
2023-05-10T04:55:10.509Z,3.45
2023-05-10T04:56:12.252Z,4.20
2023-05-10T04:57:14.053Z,4.57
2023-05-10T04:58:16.207Z,4.25
2023-05-10T04:59:18.163Z,4.60
2023-05-10T05:00:20.647Z,4.20
2023-05-10T05:01:24.088Z,3.67
2023-05-10T05:02:26.017Z,3.78
2023-05-10T05:03:28.006Z,4.30
2023-05-10T05:04:31.914Z,4.50
2023-05-10T05:05:33.745Z,4.75
2023-05-10T05:06:35.570Z,4.55
2023-05-10T05:07:38.307Z,4.53
2023-05-10T05:08:40.231Z,3.70
2023-05-10T05:09:42.012Z,4.43
2023-05-10T05:10:43.749Z,3.88
2023-05-10T05:11:45.550Z,4.20
2023-05-10T05:12:47.417Z,4.20
2023-05-10T05:13:49.276Z,4.30
2023-05-10T05:14:51.036Z,3.67
2023-05-10T05:15:52.828Z,3.38
2023-05-10T05:16:54.784Z,4.15
2023-05-10T05:17:56.620Z,3.83
2023-05-10T05:18:58.453Z,4.05
2023-05-10T05:20:00.188Z,4.35
2023-05-10T05:21:02.010Z,2.90
2023-05-10T05:22:03.752Z,3.63
2023-05-10T05:23:05.482Z,3.70
2023-05-10T05:24:07.917Z,3.65
2023-05-10T05:25:10.031Z,2.42
2023-05-10T05:26:11.982Z,3.65
2023-05-10T05:27:13.717Z,3.58
2023-05-10T05:28:15.438Z,4.10
2023-05-10T05:29:17.182Z,4.32
2023-05-10T05:30:19.212Z,3.65
2023-05-10T05:31:21.854Z,3.63
2023-05-10T05:32:25.220Z,3.90
2023-05-10T05:33:27.035Z,3.83
2023-05-10T05:34:28.836Z,3.50
2023-05-10T05:35:30.600Z,3.50
2023-05-10T05:36:32.560Z,3.47
2023-05-10T05:37:34.395Z,4.80
2023-05-10T05:38:36.157Z,6.40
2023-05-10T05:39:38.224Z,3.50
2023-05-10T05:40:39.970Z,3.15
2023-05-10T05:41:41.719Z,2.70
2023-05-10T05:42:43.543Z,3.60
2023-05-10T05:43:45.313Z,3.78
2023-05-10T05:44:47.140Z,4.00
2023-05-10T05:45:49.099Z,3.13
2023-05-10T05:46:51.000Z,3.25
2023-05-10T05:47:53.066Z,4.13
2023-05-10T05:48:54.892Z,2.85
2023-05-10T05:49:56.704Z,3.40
2023-05-10T05:50:59.034Z,3.28
2023-05-10T05:52:05.395Z,3.45
2023-05-10T05:53:07.256Z,3.60
2023-05-10T05:54:09.165Z,3.13
2023-05-10T05:55:10.931Z,3.10
2023-05-10T05:56:12.686Z,3.50
2023-05-10T05:57:14.718Z,3.95
2023-05-10T05:58:16.489Z,3.92
2023-05-10T05:59:18.271Z,3.45
2023-05-10T06:00:20.103Z,3.22
2023-05-10T06:01:22.341Z,4.00
2023-05-10T06:02:24.216Z,3.28
2023-05-10T06:03:26.177Z,3.25
2023-05-10T06:04:28.071Z,2.90
2023-05-10T06:05:30.526Z,3.22
2023-05-10T06:06:33.224Z,3.00
2023-05-10T06:07:35.175Z,3.17
2023-05-10T06:08:36.940Z,2.70
2023-05-10T06:09:38.878Z,3.08
2023-05-10T06:10:41.062Z,3.20
2023-05-10T06:11:43.025Z,2.60
2023-05-10T06:12:44.813Z,3.08
2023-05-10T06:13:47.994Z,2.78
2023-05-10T06:14:49.745Z,3.10
2023-05-10T06:15:51.995Z,3.45
2023-05-10T06:16:53.826Z,3.25
2023-05-10T06:17:55.866Z,3.42
2023-05-10T06:18:57.759Z,3.22
2023-05-10T06:19:59.566Z,3.50
2023-05-10T06:21:01.444Z,3.40
2023-05-10T06:22:03.353Z,3.00
2023-05-10T06:23:05.453Z,3.05
2023-05-10T06:24:07.714Z,3.22
2023-05-10T06:25:10.743Z,3.25
2023-05-10T06:26:12.631Z,3.80
2023-05-10T06:27:14.392Z,2.65
2023-05-10T06:28:16.174Z,2.83
2023-05-10T06:29:18.420Z,3.15
2023-05-10T06:30:20.394Z,3.10
2023-05-10T06:31:22.265Z,3.08
2023-05-10T06:32:24.147Z,3.22
2023-05-10T06:33:25.930Z,3.58
2023-05-10T06:34:27.685Z,2.90
2023-05-10T06:35:30.191Z,3.05
2023-05-10T06:36:32.384Z,3.42
2023-05-10T06:37:35.015Z,3.97
2023-05-10T06:38:36.956Z,3.40
2023-05-10T06:39:38.775Z,3.00
2023-05-10T06:40:43.748Z,3.10
2023-05-10T06:41:45.546Z,3.50
2023-05-10T06:42:49.083Z,2.88
2023-05-10T06:43:50.909Z,3.50
2023-05-10T06:44:52.771Z,3.00
2023-05-10T06:45:54.534Z,2.80
2023-05-10T06:46:56.775Z,2.75
2023-05-10T06:47:58.564Z,3.53
2023-05-10T06:49:00.908Z,3.22
2023-05-10T06:50:02.907Z,3.10
2023-05-10T06:51:04.948Z,2.33
2023-05-10T06:52:06.809Z,3.40
2023-05-10T06:53:08.641Z,2.65
2023-05-10T06:54:10.456Z,3.17
2023-05-10T06:55:12.459Z,2.72
2023-05-10T06:56:14.933Z,2.10
2023-05-10T06:57:30.535Z,2.40
2023-05-10T06:58:33.769Z,2.35
2023-05-10T06:59:35.769Z,2.30
2023-05-10T07:00:41.339Z,2.70
2023-05-10T07:01:43.748Z,2.42
2023-05-10T07:02:46.675Z,3.03
2023-05-10T07:03:48.568Z,2.35
2023-05-10T07:04:51.368Z,2.47
2023-05-10T07:05:53.260Z,2.85
2023-05-10T07:06:55.123Z,3.72
2023-05-10T07:07:56.894Z,2.92
2023-05-10T07:08:58.736Z,3.60
2023-05-10T07:10:00.609Z,2.90
2023-05-10T07:11:08.577Z,3.30
2023-05-10T07:12:13.392Z,3.40
2023-05-10T07:13:16.758Z,3.20
2023-05-10T07:14:18.856Z,3.40
2023-05-10T07:15:21.190Z,2.28
2023-05-10T07:16:23.274Z,2.60
2023-05-10T07:17:25.429Z,3.15
2023-05-10T07:18:27.915Z,3.50
2023-05-10T07:19:30.469Z,3.05
2023-05-10T07:20:32.318Z,2.47
2023-05-10T07:21:34.341Z,2.75
2023-05-10T07:22:36.146Z,3.33
2023-05-10T07:23:37.920Z,2.70
2023-05-10T07:24:39.737Z,3.03
2023-05-10T07:25:41.630Z,2.30
2023-05-10T07:26:43.406Z,3.67
2023-05-10T07:27:45.289Z,3.03
2023-05-10T07:28:47.827Z,2.22
2023-05-10T07:29:49.575Z,2.40
2023-05-10T07:30:51.582Z,2.70
2023-05-10T07:31:55.409Z,2.72
2023-05-10T07:33:00.201Z,3.03
2023-05-10T07:34:01.931Z,2.78
2023-05-10T07:35:04.294Z,2.50
2023-05-10T07:36:06.358Z,2.50
2023-05-10T07:37:08.491Z,2.78
2023-05-10T07:38:11.991Z,2.72
2023-05-10T07:39:18.595Z,2.00
2023-05-10T07:40:29.161Z,2.40
2023-05-10T07:41:30.922Z,2.47
2023-05-10T07:42:32.708Z,2.35
2023-05-10T07:43:34.471Z,2.03
2023-05-10T07:44:36.275Z,2.53
2023-05-10T07:45:38.098Z,2.60
2023-05-10T07:46:39.883Z,2.25
2023-05-10T07:47:41.783Z,2.45
2023-05-10T07:48:43.696Z,2.70
2023-05-10T07:49:45.510Z,2.15
2023-05-10T07:50:47.237Z,2.20
2023-05-10T07:51:49.378Z,2.60
2023-05-10T07:52:51.201Z,3.20
2023-05-10T07:53:53.108Z,2.95
2023-05-10T07:54:55.367Z,2.50
2023-05-10T07:56:00.335Z,2.42
2023-05-10T07:57:02.268Z,2.33
2023-05-10T07:58:04.038Z,2.40
2023-05-10T07:59:07.772Z,2.67
2023-05-10T08:00:14.361Z,2.00
2023-05-10T08:01:16.160Z,2.50
2023-05-10T08:02:18.033Z,2.13
2023-05-10T08:03:20.019Z,2.38
2023-05-10T08:04:22.142Z,2.60
2023-05-10T08:05:23.895Z,2.20
2023-05-10T08:06:27.431Z,2.17
2023-05-10T08:07:29.208Z,2.08
2023-05-10T08:08:31.014Z,2.30
2023-05-10T08:09:32.964Z,2.50
2023-05-10T08:10:34.726Z,2.88
2023-05-10T08:11:36.515Z,2.65
2023-05-10T08:12:39.354Z,2.45
2023-05-10T08:13:41.145Z,2.45
2023-05-10T08:14:42.908Z,2.63
2023-05-10T08:15:44.725Z,2.70
2023-05-10T08:16:46.573Z,2.63
2023-05-10T08:17:48.417Z,2.65
2023-05-10T08:18:51.693Z,2.25
2023-05-10T08:19:53.521Z,2.10
2023-05-10T08:20:55.617Z,2.30
2023-05-10T08:21:58.094Z,2.20
2023-05-10T08:22:59.936Z,2.55
2023-05-10T08:24:01.696Z,2.35
2023-05-10T08:25:03.627Z,2.58
2023-05-10T08:26:05.517Z,2.30
2023-05-10T08:27:07.269Z,2.55
2023-05-10T08:28:11.283Z,2.70
2023-05-10T08:29:13.860Z,2.63
2023-05-10T08:30:15.890Z,4.20
2023-05-10T08:31:17.766Z,3.08
2023-05-10T08:32:19.609Z,5.75
2023-05-10T08:33:21.626Z,4.40
2023-05-10T08:34:23.579Z,4.07
2023-05-10T08:35:25.675Z,2.40
2023-05-10T08:36:28.622Z,2.60
2023-05-10T08:37:31.627Z,2.25
2023-05-10T08:38:33.573Z,2.35
2023-05-10T08:39:36.640Z,2.20
2023-05-10T08:40:39.130Z,4.78
2023-05-10T08:41:44.680Z,2.65
2023-05-10T08:43:03.538Z,1.90
2023-05-10T08:44:07.354Z,2.55
2023-05-10T08:45:11.567Z,2.00
2023-05-10T08:46:19.053Z,2.72
2023-05-10T08:47:21.526Z,2.40
2023-05-10T08:48:25.983Z,2.70
2023-05-10T08:49:32.609Z,2.50
2023-05-10T08:50:38.650Z,2.33
2023-05-10T08:51:50.720Z,2.40
2023-05-10T08:52:58.547Z,2.05
2023-05-10T08:54:01.443Z,2.75
2023-05-10T08:55:04.146Z,2.50
2023-05-10T08:56:07.142Z,2.50
2023-05-10T08:57:09.290Z,2.30
2023-05-10T08:58:11.519Z,6.80
2023-05-10T08:59:14.933Z,4.80
2023-05-10T09:00:19.137Z,4.20
2023-05-10T09:01:22.800Z,4.82
2023-05-10T09:02:24.992Z,4.07
2023-05-10T09:03:27.476Z,2.42
2023-05-10T09:04:30.413Z,3.63
2023-05-10T09:05:32.814Z,2.55
2023-05-10T09:06:35.826Z,3.00
2023-05-10T09:07:38.059Z,3.30
2023-05-10T09:08:42.577Z,2.42
2023-05-10T09:09:46.817Z,2.55
2023-05-10T09:10:49.854Z,2.63
2023-05-10T09:11:53.396Z,2.60
2023-05-10T09:12:59.367Z,2.60
2023-05-10T09:14:02.637Z,2.25
2023-05-10T09:15:07.983Z,2.67
2023-05-10T09:16:21.226Z,2.47
2023-05-10T09:17:26.845Z,2.75
2023-05-10T09:18:28.784Z,2.15
2023-05-10T09:19:30.739Z,2.60
2023-05-10T09:20:32.676Z,2.25
2023-05-10T09:21:39.929Z,2.47
2023-05-10T09:22:41.812Z,2.35
2023-05-10T09:23:48.516Z,2.38
2023-05-10T09:25:15.675Z,2.30
2023-05-10T09:26:18.334Z,2.10
2023-05-10T09:27:28.092Z,3.28
2023-05-10T09:28:50.718Z,2.70
2023-05-10T09:29:55.310Z,2.42
2023-05-10T09:30:57.243Z,2.72
2023-05-10T09:31:59.094Z,2.47
2023-05-10T09:33:01.761Z,2.50
2023-05-10T09:34:03.921Z,2.30
2023-05-10T09:35:18.494Z,2.90
2023-05-10T09:36:20.491Z,2.40
2023-05-10T09:37:31.159Z,2.58
2023-05-10T09:38:54.974Z,2.05
2023-05-10T09:39:56.811Z,2.15
2023-05-10T09:40:58.699Z,2.75
2023-05-10T09:42:10.129Z,2.65
2023-05-10T09:43:11.997Z,2.47
2023-05-10T09:44:19.643Z,2.50
2023-05-10T09:45:23.491Z,2.45
2023-05-10T09:46:25.407Z,2.30
2023-05-10T09:47:27.945Z,2.25
2023-05-10T09:48:30.037Z,3.30
2023-05-10T09:49:32.184Z,2.78
2023-05-10T09:50:35.094Z,1.90
2023-05-10T09:51:37.107Z,2.38
2023-05-10T09:53:01.500Z,2.40
2023-05-10T09:54:17.166Z,2.45
2023-05-10T09:55:25.608Z,2.40
2023-05-10T09:56:41.489Z,2.15
2023-05-10T09:57:43.363Z,2.50
2023-05-10T09:58:45.209Z,2.65
2023-05-10T09:59:47.960Z,2.20
2023-05-10T10:00:52.448Z,2.33
2023-05-10T10:02:03.691Z,2.45
2023-05-10T10:03:06.399Z,2.22
2023-05-10T10:04:10.824Z,2.10
2023-05-10T10:05:12.998Z,2.33
2023-05-10T10:06:29.658Z,2.30
2023-05-10T10:07:33.765Z,2.70
2023-05-10T10:08:36.216Z,2.45
2023-05-10T10:09:38.260Z,2.47
2023-05-10T10:10:41.789Z,2.58
2023-05-10T10:11:43.656Z,2.20
2023-05-10T10:12:45.793Z,2.67
2023-05-10T10:13:47.702Z,2.20
2023-05-10T10:14:51.251Z,2.38
2023-05-10T10:15:55.806Z,2.42
2023-05-10T10:17:06.706Z,2.67
2023-05-10T10:18:16.193Z,2.55
2023-05-10T10:19:21.849Z,2.53
2023-05-10T10:20:24.980Z,2.45
2023-05-10T10:21:27.417Z,2.38
2023-05-10T10:22:29.178Z,2.50
2023-05-10T10:23:31.092Z,2.65
2023-05-10T10:24:33.052Z,2.63
2023-05-10T10:25:35.136Z,2.20
2023-05-10T10:26:43.557Z,2.75
2023-05-10T10:28:28.431Z,2.40
2023-05-10T10:30:02.322Z,2.83
2023-05-10T10:31:53.346Z,2.90
2023-05-10T10:33:07.948Z,2.30
2023-05-10T10:34:30.451Z,2.65
2023-05-10T10:35:33.321Z,2.72
2023-05-10T10:36:48.564Z,2.35
2023-05-10T10:37:52.377Z,2.60
2023-05-10T10:39:09.571Z,3.13
2023-05-10T10:40:34.594Z,2.45
2023-05-10T10:41:45.270Z,2.55
2023-05-10T10:42:50.752Z,3.20
2023-05-10T10:44:37.307Z,2.65
2023-05-10T10:45:42.148Z,2.42
2023-05-10T10:47:14.892Z,2.78
2023-05-10T10:48:24.478Z,2.92
2023-05-10T10:49:26.675Z,2.78
2023-05-10T10:50:28.501Z,2.58
2023-05-10T10:51:32.157Z,2.42
2023-05-10T10:52:47.226Z,2.20
2023-05-10T10:53:50.002Z,2.50
2023-05-10T10:55:07.948Z,2.70
2023-05-10T10:56:16.166Z,2.53
2023-05-10T10:57:22.758Z,2.60
2023-05-10T10:58:37.108Z,2.28
2023-05-10T10:59:44.886Z,2.63
2023-05-10T11:00:46.656Z,2.63
2023-05-10T11:01:53.218Z,3.05
2023-05-10T11:03:08.920Z,2.45
2023-05-10T11:04:10.623Z,3.17
2023-05-10T11:05:49.099Z,2.67
2023-05-10T11:06:50.974Z,2.25
2023-05-10T11:07:59.554Z,2.58
2023-05-10T11:09:10.103Z,2.50
2023-05-10T11:10:12.450Z,2.20
2023-05-10T11:11:16.218Z,2.33
2023-05-10T11:12:18.016Z,2.35
2023-05-10T11:13:42.334Z,3.20
2023-05-10T11:14:44.289Z,2.90
2023-05-10T11:15:52.237Z,2.50
2023-05-10T11:16:54.246Z,2.88
2023-05-10T11:17:56.904Z,2.42
2023-05-10T11:19:10.494Z,3.63
2023-05-10T11:20:16.320Z,2.70
2023-05-10T11:21:18.390Z,2.20
2023-05-10T11:22:20.128Z,2.30
2023-05-10T11:23:22.495Z,3.50
2023-05-10T11:24:29.060Z,2.80
2023-05-10T11:25:30.861Z,2.55
2023-05-10T11:26:36.511Z,3.03
2023-05-10T11:27:39.257Z,2.45
2023-05-10T11:28:50.684Z,2.40
2023-05-10T11:29:53.314Z,3.55
2023-05-10T11:30:56.689Z,8.10
2023-05-10T11:32:00.768Z,4.97
2023-05-10T11:33:02.728Z,2.50
2023-05-10T11:34:04.560Z,3.08
2023-05-10T11:35:13.356Z,2.40
2023-05-10T11:36:29.814Z,2.55
2023-05-10T11:37:35.055Z,4.00
2023-05-10T11:38:36.844Z,6.15
2023-05-10T11:39:41.274Z,3.60
2023-05-10T11:40:44.105Z,6.85
2023-05-10T11:41:50.415Z,3.10
2023-05-10T11:42:52.316Z,1.73
2023-05-10T11:43:56.502Z,2.40
2023-05-10T11:44:58.308Z,2.05
2023-05-10T11:46:00.438Z,2.58
2023-05-10T11:47:03.266Z,2.30
2023-05-10T11:48:05.764Z,2.53
2023-05-10T11:49:08.934Z,2.80
2023-05-10T11:50:12.579Z,2.50
2023-05-10T11:51:14.328Z,2.88
2023-05-10T11:52:16.109Z,2.55
2023-05-10T11:53:17.854Z,2.45
2023-05-10T11:54:19.594Z,3.20
2023-05-10T11:55:21.647Z,1.80
2023-05-10T11:56:24.393Z,2.45
2023-05-10T11:57:29.441Z,2.88
2023-05-10T11:58:33.345Z,2.88
2023-05-10T11:59:35.115Z,2.72
2023-05-10T12:00:36.980Z,2.03
2023-05-10T12:01:38.932Z,2.47
2023-05-10T12:02:41.358Z,2.17
2023-05-10T12:03:43.427Z,2.13
2023-05-10T12:04:45.776Z,2.40
2023-05-10T12:05:47.762Z,2.28
2023-05-10T12:06:49.703Z,2.00
2023-05-10T12:07:51.408Z,1.95
2023-05-10T12:08:54.510Z,2.63
2023-05-10T12:10:20.197Z,2.10
2023-05-10T12:11:28.273Z,2.50
2023-05-10T12:12:45.682Z,2.28
2023-05-10T12:13:47.758Z,2.60
2023-05-10T12:14:52.098Z,2.15
2023-05-10T12:15:54.015Z,2.25
2023-05-10T12:16:58.485Z,2.35
2023-05-10T12:18:00.954Z,2.25
2023-05-10T12:19:03.190Z,2.10
2023-05-10T12:20:28.432Z,2.15
2023-05-10T12:21:33.517Z,2.50
2023-05-10T12:22:35.859Z,2.47
2023-05-10T12:23:37.766Z,2.17
2023-05-10T12:24:39.725Z,2.22
2023-05-10T12:25:41.569Z,2.80
2023-05-10T12:26:43.563Z,2.55
2023-05-10T12:27:59.117Z,2.53
2023-05-10T12:29:21.163Z,2.72
2023-05-10T12:30:27.879Z,2.47
2023-05-10T12:31:29.730Z,2.25
2023-05-10T12:32:46.411Z,2.90
2023-05-10T12:33:50.188Z,2.15
2023-05-10T12:34:54.241Z,2.20
2023-05-10T12:35:57.274Z,2.20
2023-05-10T12:37:01.630Z,2.50
2023-05-10T12:38:48.502Z,2.63
2023-05-10T12:39:50.355Z,2.78
2023-05-10T12:40:52.144Z,2.45
2023-05-10T12:41:53.978Z,2.92
2023-05-10T12:42:55.915Z,2.38
2023-05-10T12:43:57.767Z,2.35
2023-05-10T12:44:59.479Z,2.00
2023-05-10T12:46:18.004Z,2.25
2023-05-10T12:47:19.813Z,2.22
2023-05-10T12:48:21.719Z,2.63
2023-05-10T12:49:23.497Z,2.33
2023-05-10T12:50:25.629Z,2.40
2023-05-10T12:51:27.405Z,2.60
2023-05-10T12:52:30.563Z,2.80
2023-05-10T12:53:32.775Z,2.20
2023-05-10T12:54:34.512Z,2.70
2023-05-10T12:55:36.313Z,2.30
2023-05-10T12:56:38.165Z,2.10
2023-05-10T12:57:39.912Z,2.33
2023-05-10T12:58:41.846Z,2.20
2023-05-10T12:59:43.590Z,1.95
2023-05-10T13:00:45.872Z,2.05
2023-05-10T13:01:47.760Z,3.03
2023-05-10T13:02:49.911Z,2.10
2023-05-10T13:03:51.732Z,2.45
2023-05-10T13:04:54.226Z,3.85
2023-05-10T13:05:56.053Z,2.70
2023-05-10T13:06:59.716Z,3.13
2023-05-10T13:08:01.739Z,2.92
2023-05-10T13:09:03.580Z,2.17
2023-05-10T13:10:07.592Z,2.17
2023-05-10T13:11:09.395Z,2.20
2023-05-10T13:12:11.188Z,1.83
2023-05-10T13:13:13.059Z,2.15
2023-05-10T13:14:15.329Z,2.10
2023-05-10T13:15:17.093Z,2.42
2023-05-10T13:16:18.931Z,2.53
2023-05-10T13:17:20.938Z,2.92
2023-05-10T13:18:22.742Z,2.80
2023-05-10T13:19:24.625Z,2.35
2023-05-10T13:20:26.565Z,2.35
2023-05-10T13:21:28.856Z,2.35
2023-05-10T13:22:39.864Z,1.80
2023-05-10T13:23:42.405Z,2.25
2023-05-10T13:24:44.331Z,2.35
2023-05-10T13:25:46.236Z,2.05
2023-05-10T13:26:47.993Z,2.25
2023-05-10T13:27:49.738Z,2.20
2023-05-10T13:28:52.514Z,2.20
2023-05-10T13:29:54.757Z,2.40
2023-05-10T13:30:56.564Z,2.67
2023-05-10T13:31:58.470Z,2.17
2023-05-10T13:33:00.382Z,2.50
2023-05-10T13:34:03.319Z,2.03
2023-05-10T13:35:06.581Z,2.35
2023-05-10T13:36:08.650Z,2.00
2023-05-10T13:37:10.457Z,2.40
2023-05-10T13:38:14.683Z,2.58
2023-05-10T13:39:17.042Z,2.50
2023-05-10T13:40:19.059Z,2.83
2023-05-10T13:41:20.901Z,2.60
2023-05-10T13:42:24.586Z,2.50
2023-05-10T13:43:26.350Z,2.38
2023-05-10T13:44:28.111Z,2.35
2023-05-10T13:45:29.859Z,2.65
2023-05-10T13:46:31.896Z,2.30
2023-05-10T13:47:33.792Z,2.60
2023-05-10T13:48:39.013Z,2.67
2023-05-10T13:49:41.079Z,2.70
2023-05-10T13:50:42.802Z,2.60
2023-05-10T13:51:44.965Z,2.33
2023-05-10T13:52:46.671Z,2.13
2023-05-10T13:53:48.464Z,2.20
2023-05-10T13:54:50.225Z,2.30
2023-05-10T13:55:52.062Z,2.20
2023-05-10T13:56:54.137Z,2.47
2023-05-10T13:57:56.059Z,2.40
2023-05-10T13:58:59.298Z,2.70
2023-05-10T14:00:01.344Z,2.78
2023-05-10T14:01:03.177Z,2.42
2023-05-10T14:02:05.114Z,1.98
2023-05-10T14:03:07.905Z,2.28
2023-05-10T14:04:11.564Z,2.10
2023-05-10T14:05:14.000Z,2.22
2023-05-10T14:06:15.995Z,2.50
2023-05-10T14:07:18.721Z,2.13
2023-05-10T14:08:21.102Z,2.17
2023-05-10T14:09:22.966Z,2.72
2023-05-10T14:10:25.043Z,2.50
2023-05-10T14:11:26.826Z,1.90
2023-05-10T14:12:28.853Z,2.40
2023-05-10T14:13:30.801Z,2.58
2023-05-10T14:14:32.551Z,2.25
2023-05-10T14:15:34.321Z,2.33
2023-05-10T14:16:36.173Z,2.80
2023-05-10T14:17:38.007Z,2.75
2023-05-10T14:18:39.860Z,2.28
2023-05-10T14:19:41.627Z,2.17
2023-05-10T14:20:43.401Z,2.50
2023-05-10T14:21:45.312Z,2.20
2023-05-10T14:22:47.077Z,2.38
2023-05-10T14:23:48.865Z,2.22
2023-05-10T14:24:51.026Z,2.35
2023-05-10T14:25:53.768Z,2.08
2023-05-10T14:26:55.561Z,2.90